sensor_id;sensor_type;location;lat;lon;timestamp;temperature;humidity
69901;DHT22;57183;50.930;5.406;2023-04-29T00:01:15;12.00;99.90
69901;DHT22;57183;50.930;5.406;2023-04-29T00:03:41;12.00;99.90
69901;DHT22;57183;50.930;5.406;2023-04-29T00:06:08;12.00;99.90
69901;DHT22;57183;50.930;5.406;2023-04-29T00:08:35;12.00;99.90
69901;DHT22;57183;50.930;5.406;2023-04-29T00:11:01;12.00;99.90
69901;DHT22;57183;50.930;5.406;2023-04-29T00:13:27;12.00;99.90
69901;DHT22;57183;50.930;5.406;2023-04-29T00:15:52;12.00;99.90
69901;DHT22;57183;50.930;5.406;2023-04-29T00:18:18;11.90;99.90
69901;DHT22;57183;50.930;5.406;2023-04-29T00:20:44;11.80;99.90
69901;DHT22;57183;50.930;5.406;2023-04-29T00:23:09;11.70;99.90
69901;DHT22;57183;50.930;5.406;2023-04-29T00:25:36;11.70;99.90
69901;DHT22;57183;50.930;5.406;2023-04-29T00:28:04;11.70;99.90
69901;DHT22;57183;50.930;5.406;2023-04-29T00:30:30;11.70;99.90
69901;DHT22;57183;50.930;5.406;2023-04-29T00:32:57;11.70;99.90
69901;DHT22;57183;50.930;5.406;2023-04-29T00:35:22;11.70;99.90
69901;DHT22;57183;50.930;5.406;2023-04-29T00:37:48;11.80;99.90
69901;DHT22;57183;50.930;5.406;2023-04-29T00:40:13;11.80;99.90
69901;DHT22;57183;50.930;5.406;2023-04-29T00:42:40;11.80;99.90
69901;DHT22;57183;50.930;5.406;2023-04-29T00:45:07;11.80;99.90
69901;DHT22;57183;50.930;5.406;2023-04-29T00:47:33;11.80;99.90
69901;DHT22;57183;50.930;5.406;2023-04-29T00:49:59;11.80;99.90
69901;DHT22;57183;50.930;5.406;2023-04-29T00:52:27;11.70;99.90
69901;DHT22;57183;50.930;5.406;2023-04-29T00:54:54;11.60;99.90
69901;DHT22;57183;50.930;5.406;2023-04-29T00:57:21;11.60;99.90
69901;DHT22;57183;50.930;5.406;2023-04-29T00:59:48;11.50;99.90
69901;DHT22;57183;50.930;5.406;2023-04-29T01:02:14;11.50;99.90
69901;DHT22;57183;50.930;5.406;2023-04-29T01:04:42;11.60;99.90
69901;DHT22;57183;50.930;5.406;2023-04-29T01:07:44;11.60;99.90
69901;DHT22;57183;50.930;5.406;2023-04-29T01:10:21;11.60;99.90
69901;DHT22;57183;50.930;5.406;2023-04-29T01:15:46;11.70;99.90
69901;DHT22;57183;50.930;5.406;2023-04-29T01:18:26;11.80;99.90
69901;DHT22;57183;50.930;5.406;2023-04-29T01:20:53;11.90;99.90
69901;DHT22;57183;50.930;5.406;2023-04-29T01:23:25;11.90;99.90
69901;DHT22;57183;50.930;5.406;2023-04-29T01:25:51;11.80;99.90
69901;DHT22;57183;50.930;5.406;2023-04-29T01:31:07;11.60;99.90
69901;DHT22;57183;50.930;5.406;2023-04-29T01:34:18;11.50;99.90
69901;DHT22;57183;50.930;5.406;2023-04-29T01:42:15;11.50;99.90
69901;DHT22;57183;50.930;5.406;2023-04-29T01:44:42;11.40;99.90
69901;DHT22;57183;50.930;5.406;2023-04-29T01:47:12;11.30;99.90
69901;DHT22;57183;50.930;5.406;2023-04-29T01:49:38;11.30;99.90
69901;DHT22;57183;50.930;5.406;2023-04-29T01:52:04;11.30;99.90
69901;DHT22;57183;50.930;5.406;2023-04-29T01:54:31;11.30;99.90
69901;DHT22;57183;50.930;5.406;2023-04-29T01:57:01;11.30;99.90
69901;DHT22;57183;50.930;5.406;2023-04-29T01:59:27;11.30;99.90
69901;DHT22;57183;50.930;5.406;2023-04-29T02:01:52;11.20;99.90
69901;DHT22;57183;50.930;5.406;2023-04-29T02:04:18;11.20;99.90
69901;DHT22;57183;50.930;5.406;2023-04-29T02:06:44;11.20;99.90
69901;DHT22;57183;50.930;5.406;2023-04-29T02:09:09;11.10;99.90
69901;DHT22;57183;50.930;5.406;2023-04-29T02:11:35;11.00;99.90
69901;DHT22;57183;50.930;5.406;2023-04-29T02:14:01;10.90;99.90
69901;DHT22;57183;50.930;5.406;2023-04-29T02:16:26;10.80;99.90
69901;DHT22;57183;50.930;5.406;2023-04-29T02:18:52;10.90;99.90
69901;DHT22;57183;50.930;5.406;2023-04-29T02:21:18;10.90;99.90
69901;DHT22;57183;50.930;5.406;2023-04-29T02:23:43;10.90;99.90
69901;DHT22;57183;50.930;5.406;2023-04-29T02:26:09;10.90;99.90
69901;DHT22;57183;50.930;5.406;2023-04-29T02:28:35;10.90;99.90
69901;DHT22;57183;50.930;5.406;2023-04-29T02:31:01;10.90;99.90
69901;DHT22;57183;50.930;5.406;2023-04-29T02:33:27;10.90;99.90
69901;DHT22;57183;50.930;5.406;2023-04-29T02:35:53;10.90;99.90
69901;DHT22;57183;50.930;5.406;2023-04-29T02:38:18;10.80;99.90
69901;DHT22;57183;50.930;5.406;2023-04-29T02:40:44;10.80;99.90
69901;DHT22;57183;50.930;5.406;2023-04-29T02:43:11;10.80;99.90
69901;DHT22;57183;50.930;5.406;2023-04-29T02:45:37;10.80;99.90
69901;DHT22;57183;50.930;5.406;2023-04-29T02:48:04;10.80;99.90
69901;DHT22;57183;50.930;5.406;2023-04-29T02:50:29;10.80;99.90
69901;DHT22;57183;50.930;5.406;2023-04-29T02:52:55;10.80;99.90
69901;DHT22;57183;50.930;5.406;2023-04-29T02:55:22;10.70;99.90
69901;DHT22;57183;50.930;5.406;2023-04-29T02:57:47;10.70;99.90
69901;DHT22;57183;50.930;5.406;2023-04-29T03:00:13;10.60;99.90
69901;DHT22;57183;50.930;5.406;2023-04-29T03:02:39;10.60;99.90
69901;DHT22;57183;50.930;5.406;2023-04-29T03:05:05;10.60;99.90
69901;DHT22;57183;50.930;5.406;2023-04-29T03:07:31;10.50;99.90
69901;DHT22;57183;50.930;5.406;2023-04-29T03:09:57;10.50;99.90
69901;DHT22;57183;50.930;5.406;2023-04-29T03:12:22;10.50;99.90
69901;DHT22;57183;50.930;5.406;2023-04-29T03:14:48;10.50;99.90
69901;DHT22;57183;50.930;5.406;2023-04-29T03:17:14;10.50;99.90
69901;DHT22;57183;50.930;5.406;2023-04-29T03:19:40;10.60;99.90
69901;DHT22;57183;50.930;5.406;2023-04-29T03:22:06;10.60;99.90
69901;DHT22;57183;50.930;5.406;2023-04-29T03:24:34;10.70;99.90
69901;DHT22;57183;50.930;5.406;2023-04-29T03:27:00;10.70;99.90
69901;DHT22;57183;50.930;5.406;2023-04-29T03:29:25;10.60;99.90
69901;DHT22;57183;50.930;5.406;2023-04-29T03:31:52;10.60;99.90
69901;DHT22;57183;50.930;5.406;2023-04-29T03:34:18;10.50;99.90
69901;DHT22;57183;50.930;5.406;2023-04-29T03:36:44;10.50;99.90
69901;DHT22;57183;50.930;5.406;2023-04-29T03:39:10;10.50;99.90
69901;DHT22;57183;50.930;5.406;2023-04-29T03:41:37;10.60;99.90
69901;DHT22;57183;50.930;5.406;2023-04-29T03:44:03;10.60;99.90
69901;DHT22;57183;50.930;5.406;2023-04-29T03:46:29;10.70;99.90
69901;DHT22;57183;50.930;5.406;2023-04-29T03:48:55;10.70;99.90
69901;DHT22;57183;50.930;5.406;2023-04-29T03:51:24;10.50;99.90
69901;DHT22;57183;50.930;5.406;2023-04-29T03:53:55;10.50;99.90
69901;DHT22;57183;50.930;5.406;2023-04-29T03:56:22;10.50;99.90
69901;DHT22;57183;50.930;5.406;2023-04-29T03:58:48;10.60;99.90
69901;DHT22;57183;50.930;5.406;2023-04-29T04:01:14;10.80;99.90
69901;DHT22;57183;50.930;5.406;2023-04-29T04:03:40;10.70;99.90
69901;DHT22;57183;50.930;5.406;2023-04-29T04:06:07;10.60;99.90
69901;DHT22;57183;50.930;5.406;2023-04-29T04:08:33;10.60;99.90
69901;DHT22;57183;50.930;5.406;2023-04-29T04:10:59;10.70;99.90
69901;DHT22;57183;50.930;5.406;2023-04-29T04:13:28;10.70;99.90
69901;DHT22;57183;50.930;5.406;2023-04-29T04:15:53;10.60;99.90
69901;DHT22;57183;50.930;5.406;2023-04-29T04:18:19;10.60;99.90
69901;DHT22;57183;50.930;5.406;2023-04-29T04:20:45;10.70;99.90
69901;DHT22;57183;50.930;5.406;2023-04-29T04:23:12;10.80;99.90
69901;DHT22;57183;50.930;5.406;2023-04-29T04:25:37;10.80;99.90
69901;DHT22;57183;50.930;5.406;2023-04-29T04:28:03;10.90;99.90
69901;DHT22;57183;50.930;5.406;2023-04-29T04:30:29;11.00;99.90
69901;DHT22;57183;50.930;5.406;2023-04-29T04:32:55;10.90;99.90
69901;DHT22;57183;50.930;5.406;2023-04-29T04:35:20;10.80;99.90
69901;DHT22;57183;50.930;5.406;2023-04-29T04:37:46;10.70;99.90
69901;DHT22;57183;50.930;5.406;2023-04-29T04:40:12;10.50;99.90
69901;DHT22;57183;50.930;5.406;2023-04-29T04:42:38;10.50;99.90
69901;DHT22;57183;50.930;5.406;2023-04-29T04:45:04;10.40;99.90
69901;DHT22;57183;50.930;5.406;2023-04-29T04:47:30;10.50;99.90
69901;DHT22;57183;50.930;5.406;2023-04-29T04:49:56;10.60;99.90
69901;DHT22;57183;50.930;5.406;2023-04-29T04:52:22;10.60;99.90
69901;DHT22;57183;50.930;5.406;2023-04-29T04:54:47;10.70;99.90
69901;DHT22;57183;50.930;5.406;2023-04-29T04:57:13;10.70;99.90
69901;DHT22;57183;50.930;5.406;2023-04-29T04:59:39;10.70;99.90
69901;DHT22;57183;50.930;5.406;2023-04-29T05:02:04;10.80;99.90
69901;DHT22;57183;50.930;5.406;2023-04-29T05:04:30;10.80;99.90
69901;DHT22;57183;50.930;5.406;2023-04-29T05:06:56;10.80;99.90
69901;DHT22;57183;50.930;5.406;2023-04-29T05:09:22;10.70;99.90
69901;DHT22;57183;50.930;5.406;2023-04-29T05:11:47;10.70;99.90
69901;DHT22;57183;50.930;5.406;2023-04-29T05:14:13;10.80;99.90
69901;DHT22;57183;50.930;5.406;2023-04-29T05:16:39;10.60;99.90
69901;DHT22;57183;50.930;5.406;2023-04-29T05:19:05;10.60;99.90
69901;DHT22;57183;50.930;5.406;2023-04-29T05:21:30;10.60;99.90
69901;DHT22;57183;50.930;5.406;2023-04-29T05:23:56;10.70;99.90
69901;DHT22;57183;50.930;5.406;2023-04-29T05:26:22;10.60;99.90
69901;DHT22;57183;50.930;5.406;2023-04-29T05:28:48;10.60;99.90
69901;DHT22;57183;50.930;5.406;2023-04-29T05:31:13;10.60;99.90
69901;DHT22;57183;50.930;5.406;2023-04-29T05:33:39;10.70;99.90
69901;DHT22;57183;50.930;5.406;2023-04-29T05:36:05;10.50;99.90
69901;DHT22;57183;50.930;5.406;2023-04-29T05:38:31;10.40;99.90
69901;DHT22;57183;50.930;5.406;2023-04-29T05:40:57;10.30;99.90
69901;DHT22;57183;50.930;5.406;2023-04-29T05:43:23;10.40;99.90
69901;DHT22;57183;50.930;5.406;2023-04-29T05:45:49;10.40;99.90
69901;DHT22;57183;50.930;5.406;2023-04-29T05:48:15;10.30;99.90
69901;DHT22;57183;50.930;5.406;2023-04-29T05:50:40;10.30;99.90
69901;DHT22;57183;50.930;5.406;2023-04-29T05:53:06;10.20;99.90
69901;DHT22;57183;50.930;5.406;2023-04-29T05:55:32;10.30;99.90
69901;DHT22;57183;50.930;5.406;2023-04-29T05:57:58;10.30;99.90
69901;DHT22;57183;50.930;5.406;2023-04-29T06:00:23;10.40;99.90
69901;DHT22;57183;50.930;5.406;2023-04-29T06:02:49;10.40;99.90
69901;DHT22;57183;50.930;5.406;2023-04-29T06:05:15;10.50;99.90
69901;DHT22;57183;50.930;5.406;2023-04-29T06:07:41;10.40;99.90
69901;DHT22;57183;50.930;5.406;2023-04-29T06:10:07;10.60;99.90
69901;DHT22;57183;50.930;5.406;2023-04-29T06:12:33;10.40;99.90
69901;DHT22;57183;50.930;5.406;2023-04-29T06:14:59;10.30;99.90
69901;DHT22;57183;50.930;5.406;2023-04-29T06:17:26;10.30;99.90
69901;DHT22;57183;50.930;5.406;2023-04-29T06:19:54;10.40;99.90
69901;DHT22;57183;50.930;5.406;2023-04-29T06:22:20;10.40;99.90
69901;DHT22;57183;50.930;5.406;2023-04-29T06:24:46;10.20;99.90
69901;DHT22;57183;50.930;5.406;2023-04-29T06:27:16;10.30;99.90
69901;DHT22;57183;50.930;5.406;2023-04-29T06:29:42;10.30;99.90
69901;DHT22;57183;50.930;5.406;2023-04-29T06:32:08;10.30;99.90
69901;DHT22;57183;50.930;5.406;2023-04-29T06:34:33;10.30;99.90
69901;DHT22;57183;50.930;5.406;2023-04-29T06:36:59;10.50;99.90
69901;DHT22;57183;50.930;5.406;2023-04-29T06:39:25;10.50;99.90
69901;DHT22;57183;50.930;5.406;2023-04-29T06:41:50;10.40;99.90
69901;DHT22;57183;50.930;5.406;2023-04-29T06:44:17;10.40;99.90
69901;DHT22;57183;50.930;5.406;2023-04-29T06:46:43;10.40;99.90
69901;DHT22;57183;50.930;5.406;2023-04-29T06:49:09;10.40;99.90
69901;DHT22;57183;50.930;5.406;2023-04-29T06:51:36;10.30;99.90
69901;DHT22;57183;50.930;5.406;2023-04-29T06:54:02;10.20;99.90
69901;DHT22;57183;50.930;5.406;2023-04-29T06:56:28;10.30;99.90
69901;DHT22;57183;50.930;5.406;2023-04-29T06:58:54;10.40;99.90
69901;DHT22;57183;50.930;5.406;2023-04-29T07:01:20;10.40;99.90
69901;DHT22;57183;50.930;5.406;2023-04-29T07:03:45;10.40;99.90
69901;DHT22;57183;50.930;5.406;2023-04-29T07:06:11;10.50;99.90
69901;DHT22;57183;50.930;5.406;2023-04-29T07:08:37;10.50;99.90
69901;DHT22;57183;50.930;5.406;2023-04-29T07:11:03;10.50;99.90
69901;DHT22;57183;50.930;5.406;2023-04-29T07:13:29;10.70;99.90
69901;DHT22;57183;50.930;5.406;2023-04-29T07:15:54;10.60;99.90
69901;DHT22;57183;50.930;5.406;2023-04-29T07:18:20;10.60;99.90
69901;DHT22;57183;50.930;5.406;2023-04-29T07:20:46;10.50;99.90
69901;DHT22;57183;50.930;5.406;2023-04-29T07:23:13;10.70;99.90
69901;DHT22;57183;50.930;5.406;2023-04-29T07:25:39;10.80;99.90
69901;DHT22;57183;50.930;5.406;2023-04-29T07:28:05;11.10;99.90
69901;DHT22;57183;50.930;5.406;2023-04-29T07:30:32;11.00;99.90
69901;DHT22;57183;50.930;5.406;2023-04-29T07:32:58;11.10;99.90
69901;DHT22;57183;50.930;5.406;2023-04-29T07:35:24;11.20;99.90
69901;DHT22;57183;50.930;5.406;2023-04-29T07:37:50;11.10;99.90
69901;DHT22;57183;50.930;5.406;2023-04-29T07:40:16;11.10;99.90
69901;DHT22;57183;50.930;5.406;2023-04-29T07:42:42;10.90;99.90
69901;DHT22;57183;50.930;5.406;2023-04-29T07:45:08;10.90;99.90
69901;DHT22;57183;50.930;5.406;2023-04-29T07:47:34;10.80;99.90
69901;DHT22;57183;50.930;5.406;2023-04-29T07:49:59;10.90;99.90
69901;DHT22;57183;50.930;5.406;2023-04-29T07:52:25;11.00;99.90
69901;DHT22;57183;50.930;5.406;2023-04-29T07:54:51;11.10;99.90
69901;DHT22;57183;50.930;5.406;2023-04-29T07:57:17;11.00;99.90
69901;DHT22;57183;50.930;5.406;2023-04-29T07:59:43;10.80;99.90
69901;DHT22;57183;50.930;5.406;2023-04-29T08:02:08;10.80;99.90
69901;DHT22;57183;50.930;5.406;2023-04-29T08:04:38;10.90;99.90
69901;DHT22;57183;50.930;5.406;2023-04-29T08:07:05;10.70;99.90
69901;DHT22;57183;50.930;5.406;2023-04-29T08:09:31;10.70;99.90
69901;DHT22;57183;50.930;5.406;2023-04-29T08:11:56;10.70;99.90
69901;DHT22;57183;50.930;5.406;2023-04-29T08:14:22;11.00;99.90
69901;DHT22;57183;50.930;5.406;2023-04-29T08:16:48;11.00;99.90
69901;DHT22;57183;50.930;5.406;2023-04-29T08:19:13;11.10;99.90
69901;DHT22;57183;50.930;5.406;2023-04-29T08:21:39;11.00;99.90
69901;DHT22;57183;50.930;5.406;2023-04-29T08:24:06;11.00;99.90
69901;DHT22;57183;50.930;5.406;2023-04-29T08:26:32;10.90;99.90
69901;DHT22;57183;50.930;5.406;2023-04-29T08:28:57;10.90;99.90
69901;DHT22;57183;50.930;5.406;2023-04-29T08:31:23;11.00;99.90
69901;DHT22;57183;50.930;5.406;2023-04-29T08:33:49;10.90;99.90
69901;DHT22;57183;50.930;5.406;2023-04-29T08:36:14;10.70;99.90
69901;DHT22;57183;50.930;5.406;2023-04-29T08:38:40;11.00;99.90
69901;DHT22;57183;50.930;5.406;2023-04-29T08:41:09;11.10;99.90
69901;DHT22;57183;50.930;5.406;2023-04-29T08:43:35;11.30;99.90
69901;DHT22;57183;50.930;5.406;2023-04-29T08:46:09;11.40;99.90
69901;DHT22;57183;50.930;5.406;2023-04-29T08:48:36;11.50;99.90
69901;DHT22;57183;50.930;5.406;2023-04-29T08:51:04;11.60;99.90
69901;DHT22;57183;50.930;5.406;2023-04-29T08:53:30;11.70;99.90
69901;DHT22;57183;50.930;5.406;2023-04-29T08:55:58;11.70;99.90
69901;DHT22;57183;50.930;5.406;2023-04-29T08:58:27;11.90;99.90
69901;DHT22;57183;50.930;5.406;2023-04-29T09:00:53;12.00;99.90
69901;DHT22;57183;50.930;5.406;2023-04-29T09:03:30;12.10;99.90
69901;DHT22;57183;50.930;5.406;2023-04-29T09:05:59;12.00;99.90
69901;DHT22;57183;50.930;5.406;2023-04-29T09:08:26;12.10;99.90
69901;DHT22;57183;50.930;5.406;2023-04-29T09:10:52;12.10;99.90
69901;DHT22;57183;50.930;5.406;2023-04-29T09:13:29;11.90;99.90
69901;DHT22;57183;50.930;5.406;2023-04-29T09:15:55;11.80;99.90
69901;DHT22;57183;50.930;5.406;2023-04-29T09:21:32;11.80;99.90
69901;DHT22;57183;50.930;5.406;2023-04-29T09:23:59;11.90;99.90
69901;DHT22;57183;50.930;5.406;2023-04-29T09:26:26;12.10;99.90
69901;DHT22;57183;50.930;5.406;2023-04-29T09:29:12;12.40;99.90
69901;DHT22;57183;50.930;5.406;2023-04-29T09:31:43;12.60;99.90
69901;DHT22;57183;50.930;5.406;2023-04-29T09:34:10;12.90;99.90
69901;DHT22;57183;50.930;5.406;2023-04-29T09:36:47;13.10;99.90
69901;DHT22;57183;50.930;5.406;2023-04-29T09:39:21;13.50;99.90
69901;DHT22;57183;50.930;5.406;2023-04-29T09:44:21;13.10;99.90
69901;DHT22;57183;50.930;5.406;2023-04-29T09:47:01;12.90;99.90
69901;DHT22;57183;50.930;5.406;2023-04-29T09:51:59;12.80;99.90
69901;DHT22;57183;50.930;5.406;2023-04-29T09:54:27;13.20;99.90
69901;DHT22;57183;50.930;5.406;2023-04-29T09:56:53;13.80;99.90
69901;DHT22;57183;50.930;5.406;2023-04-29T09:59:19;14.10;99.90
69901;DHT22;57183;50.930;5.406;2023-04-29T10:01:50;14.30;99.90
69901;DHT22;57183;50.930;5.406;2023-04-29T10:04:17;13.70;99.90
69901;DHT22;57183;50.930;5.406;2023-04-29T10:06:45;13.90;99.90
69901;DHT22;57183;50.930;5.406;2023-04-29T10:09:14;14.00;99.90
69901;DHT22;57183;50.930;5.406;2023-04-29T10:11:50;14.00;99.90
69901;DHT22;57183;50.930;5.406;2023-04-29T10:14:20;13.80;99.90
69901;DHT22;57183;50.930;5.406;2023-04-29T10:16:53;13.60;99.90
69901;DHT22;57183;50.930;5.406;2023-04-29T10:19:33;13.70;99.90
69901;DHT22;57183;50.930;5.406;2023-04-29T10:22:08;14.00;99.90
69901;DHT22;57183;50.930;5.406;2023-04-29T10:24:38;14.40;99.90
69901;DHT22;57183;50.930;5.406;2023-04-29T10:27:06;14.80;99.90
69901;DHT22;57183;50.930;5.406;2023-04-29T10:29:38;15.10;99.90
69901;DHT22;57183;50.930;5.406;2023-04-29T10:32:07;15.40;99.90
69901;DHT22;57183;50.930;5.406;2023-04-29T10:34:37;15.50;99.90
69901;DHT22;57183;50.930;5.406;2023-04-29T10:37:09;15.30;99.90
69901;DHT22;57183;50.930;5.406;2023-04-29T10:39:43;15.20;99.90
69901;DHT22;57183;50.930;5.406;2023-04-29T10:43:11;14.80;99.90
69901;DHT22;57183;50.930;5.406;2023-04-29T10:45:29;14.50;99.90
69901;DHT22;57183;50.930;5.406;2023-04-29T10:53:08;15.00;99.90
69901;DHT22;57183;50.930;5.406;2023-04-29T10:55:37;15.30;99.90
69901;DHT22;57183;50.930;5.406;2023-04-29T10:58:04;15.50;99.90
69901;DHT22;57183;50.930;5.406;2023-04-29T11:00:32;15.70;99.90
69901;DHT22;57183;50.930;5.406;2023-04-29T11:03:00;15.90;99.90
69901;DHT22;57183;50.930;5.406;2023-04-29T11:05:36;16.30;99.90
69901;DHT22;57183;50.930;5.406;2023-04-29T11:10:40;16.80;99.90
69901;DHT22;57183;50.930;5.406;2023-04-29T11:13:28;16.80;99.90
69901;DHT22;57183;50.930;5.406;2023-04-29T11:16:08;17.10;99.90
69901;DHT22;57183;50.930;5.406;2023-04-29T11:18:35;16.40;99.90
69901;DHT22;57183;50.930;5.406;2023-04-29T11:23:40;15.80;99.90
69901;DHT22;57183;50.930;5.406;2023-04-29T11:26:07;15.70;99.90
69901;DHT22;57183;50.930;5.406;2023-04-29T11:28:33;15.60;99.90
69901;DHT22;57183;50.930;5.406;2023-04-29T11:30:59;16.00;99.90
69901;DHT22;57183;50.930;5.406;2023-04-29T11:33:26;16.20;99.90
69901;DHT22;57183;50.930;5.406;2023-04-29T11:35:53;16.60;99.90
69901;DHT22;57183;50.930;5.406;2023-04-29T11:38:28;17.20;99.90
69901;DHT22;57183;50.930;5.406;2023-04-29T11:40:58;17.50;99.90
69901;DHT22;57183;50.930;5.406;2023-04-29T11:43:24;17.60;99.90
69901;DHT22;57183;50.930;5.406;2023-04-29T11:45:51;17.90;99.90
69901;DHT22;57183;50.930;5.406;2023-04-29T11:48:24;17.60;99.90
69901;DHT22;57183;50.930;5.406;2023-04-29T11:50:56;17.60;99.90
69901;DHT22;57183;50.930;5.406;2023-04-29T11:53:24;17.70;99.90
69901;DHT22;57183;50.930;5.406;2023-04-29T11:55:55;17.70;99.90
69901;DHT22;57183;50.930;5.406;2023-04-29T11:58:23;17.50;99.90
69901;DHT22;57183;50.930;5.406;2023-04-29T12:00:50;17.50;99.90
69901;DHT22;57183;50.930;5.406;2023-04-29T12:03:19;17.70;99.90
69901;DHT22;57183;50.930;5.406;2023-04-29T12:05:55;17.80;99.90
69901;DHT22;57183;50.930;5.406;2023-04-29T12:08:22;17.80;99.90
69901;DHT22;57183;50.930;5.406;2023-04-29T12:10:49;17.40;99.90
69901;DHT22;57183;50.930;5.406;2023-04-29T12:13:16;17.50;99.90
69901;DHT22;57183;50.930;5.406;2023-04-29T12:15:43;17.90;99.90
69901;DHT22;57183;50.930;5.406;2023-04-29T12:18:09;18.10;99.90
69901;DHT22;57183;50.930;5.406;2023-04-29T12:20:35;18.00;99.90
69901;DHT22;57183;50.930;5.406;2023-04-29T12:23:12;17.80;99.90
69901;DHT22;57183;50.930;5.406;2023-04-29T12:25:39;17.50;99.90
69901;DHT22;57183;50.930;5.406;2023-04-29T12:28:11;17.20;99.90
69901;DHT22;57183;50.930;5.406;2023-04-29T12:30:37;17.10;99.90
69901;DHT22;57183;50.930;5.406;2023-04-29T12:33:03;17.00;99.90
69901;DHT22;57183;50.930;5.406;2023-04-29T12:35:29;16.80;99.90
69901;DHT22;57183;50.930;5.406;2023-04-29T12:37:57;16.70;99.90
69901;DHT22;57183;50.930;5.406;2023-04-29T12:40:23;16.60;99.90
69901;DHT22;57183;50.930;5.406;2023-04-29T12:42:49;16.50;99.90
69901;DHT22;57183;50.930;5.406;2023-04-29T12:45:32;16.50;99.90
69901;DHT22;57183;50.930;5.406;2023-04-29T12:47:59;16.50;99.90
69901;DHT22;57183;50.930;5.406;2023-04-29T12:50:32;16.60;99.90
69901;DHT22;57183;50.930;5.406;2023-04-29T12:52:59;16.70;99.90
69901;DHT22;57183;50.930;5.406;2023-04-29T12:55:25;16.90;99.90
69901;DHT22;57183;50.930;5.406;2023-04-29T12:57:51;17.00;99.90
69901;DHT22;57183;50.930;5.406;2023-04-29T13:00:16;16.60;99.90
69901;DHT22;57183;50.930;5.406;2023-04-29T13:02:45;16.60;99.90
69901;DHT22;57183;50.930;5.406;2023-04-29T13:05:11;16.70;99.90
69901;DHT22;57183;50.930;5.406;2023-04-29T13:07:37;16.70;99.90
69901;DHT22;57183;50.930;5.406;2023-04-29T13:10:04;16.90;99.90
69901;DHT22;57183;50.930;5.406;2023-04-29T13:12:31;17.00;99.90
69901;DHT22;57183;50.930;5.406;2023-04-29T13:14:57;16.70;99.90
69901;DHT22;57183;50.930;5.406;2023-04-29T13:17:22;17.10;99.90
69901;DHT22;57183;50.930;5.406;2023-04-29T13:19:48;17.40;99.90
69901;DHT22;57183;50.930;5.406;2023-04-29T13:22:15;17.30;99.90
69901;DHT22;57183;50.930;5.406;2023-04-29T13:24:41;17.80;99.90
69901;DHT22;57183;50.930;5.406;2023-04-29T13:27:06;17.70;99.90
69901;DHT22;57183;50.930;5.406;2023-04-29T13:29:32;17.90;99.90
69901;DHT22;57183;50.930;5.406;2023-04-29T13:31:57;17.80;99.90
69901;DHT22;57183;50.930;5.406;2023-04-29T13:34:23;17.80;99.90
69901;DHT22;57183;50.930;5.406;2023-04-29T13:36:49;17.40;99.90
69901;DHT22;57183;50.930;5.406;2023-04-29T13:39:14;16.80;99.90
69901;DHT22;57183;50.930;5.406;2023-04-29T13:41:41;16.70;99.90
69901;DHT22;57183;50.930;5.406;2023-04-29T13:44:07;16.70;99.90
69901;DHT22;57183;50.930;5.406;2023-04-29T13:46:33;17.00;99.90
69901;DHT22;57183;50.930;5.406;2023-04-29T13:48:58;17.30;99.90
69901;DHT22;57183;50.930;5.406;2023-04-29T13:51:24;17.50;99.90
69901;DHT22;57183;50.930;5.406;2023-04-29T13:53:50;17.40;99.90
69901;DHT22;57183;50.930;5.406;2023-04-29T13:56:15;17.30;99.90
69901;DHT22;57183;50.930;5.406;2023-04-29T13:58:41;17.30;99.90
69901;DHT22;57183;50.930;5.406;2023-04-29T14:01:07;17.50;99.90
69901;DHT22;57183;50.930;5.406;2023-04-29T14:03:33;17.30;99.90
69901;DHT22;57183;50.930;5.406;2023-04-29T14:05:59;17.00;99.90
69901;DHT22;57183;50.930;5.406;2023-04-29T14:08:25;16.70;99.90
69901;DHT22;57183;50.930;5.406;2023-04-29T14:10:51;16.60;99.90
69901;DHT22;57183;50.930;5.406;2023-04-29T14:13:16;16.60;99.90
69901;DHT22;57183;50.930;5.406;2023-04-29T14:15:42;16.50;99.90
69901;DHT22;57183;50.930;5.406;2023-04-29T14:18:08;16.60;99.90
69901;DHT22;57183;50.930;5.406;2023-04-29T14:20:35;16.90;99.90
69901;DHT22;57183;50.930;5.406;2023-04-29T14:23:00;16.90;99.90
69901;DHT22;57183;50.930;5.406;2023-04-29T14:25:26;16.70;99.90
69901;DHT22;57183;50.930;5.406;2023-04-29T14:27:52;16.80;99.90
69901;DHT22;57183;50.930;5.406;2023-04-29T14:30:18;16.70;99.90
69901;DHT22;57183;50.930;5.406;2023-04-29T14:32:43;17.00;99.90
69901;DHT22;57183;50.930;5.406;2023-04-29T14:35:10;17.20;99.90
69901;DHT22;57183;50.930;5.406;2023-04-29T14:37:36;17.40;99.90
69901;DHT22;57183;50.930;5.406;2023-04-29T14:40:02;17.50;99.90
69901;DHT22;57183;50.930;5.406;2023-04-29T14:42:28;17.40;99.90
69901;DHT22;57183;50.930;5.406;2023-04-29T14:44:54;17.30;99.90
69901;DHT22;57183;50.930;5.406;2023-04-29T14:47:20;16.80;99.90
69901;DHT22;57183;50.930;5.406;2023-04-29T14:49:46;16.90;99.90
69901;DHT22;57183;50.930;5.406;2023-04-29T14:52:11;17.00;99.90
69901;DHT22;57183;50.930;5.406;2023-04-29T14:54:37;17.10;99.90
69901;DHT22;57183;50.930;5.406;2023-04-29T14:57:03;17.30;99.90
69901;DHT22;57183;50.930;5.406;2023-04-29T14:59:28;17.30;99.90
69901;DHT22;57183;50.930;5.406;2023-04-29T15:01:55;17.40;99.90
69901;DHT22;57183;50.930;5.406;2023-04-29T15:04:21;17.50;99.90
69901;DHT22;57183;50.930;5.406;2023-04-29T15:06:48;17.40;99.90
69901;DHT22;57183;50.930;5.406;2023-04-29T15:09:14;17.60;99.90
69901;DHT22;57183;50.930;5.406;2023-04-29T15:11:40;17.70;99.90
69901;DHT22;57183;50.930;5.406;2023-04-29T15:14:06;17.60;99.90
69901;DHT22;57183;50.930;5.406;2023-04-29T15:16:33;17.50;99.90
69901;DHT22;57183;50.930;5.406;2023-04-29T15:18:59;17.10;99.90
69901;DHT22;57183;50.930;5.406;2023-04-29T15:21:25;17.20;99.90
69901;DHT22;57183;50.930;5.406;2023-04-29T15:23:51;17.50;99.90
69901;DHT22;57183;50.930;5.406;2023-04-29T15:26:17;17.50;99.90
69901;DHT22;57183;50.930;5.406;2023-04-29T15:28:44;17.50;99.90
69901;DHT22;57183;50.930;5.406;2023-04-29T15:31:10;17.20;99.90
69901;DHT22;57183;50.930;5.406;2023-04-29T15:33:36;17.20;99.90
69901;DHT22;57183;50.930;5.406;2023-04-29T15:36:02;17.50;99.90
69901;DHT22;57183;50.930;5.406;2023-04-29T15:38:28;17.60;99.90
69901;DHT22;57183;50.930;5.406;2023-04-29T15:40:54;17.40;99.90
69901;DHT22;57183;50.930;5.406;2023-04-29T15:43:26;17.50;99.90
69901;DHT22;57183;50.930;5.406;2023-04-29T15:45:51;17.60;99.90
69901;DHT22;57183;50.930;5.406;2023-04-29T15:48:17;17.60;99.90
69901;DHT22;57183;50.930;5.406;2023-04-29T15:50:43;17.40;99.90
69901;DHT22;57183;50.930;5.406;2023-04-29T15:53:09;17.40;99.90
69901;DHT22;57183;50.930;5.406;2023-04-29T15:55:35;17.30;99.90
69901;DHT22;57183;50.930;5.406;2023-04-29T15:58:01;17.20;99.90
69901;DHT22;57183;50.930;5.406;2023-04-29T16:00:26;17.00;99.90